createdAt,value
2022-11-13T00:01:59.041Z,100.00
2022-11-13T00:07:21.491Z,100.00
2022-11-13T00:12:43.255Z,100.00
2022-11-13T00:18:04.515Z,100.00
2022-11-13T00:23:27.056Z,100.00
2022-11-13T00:28:48.846Z,100.00
2022-11-13T00:34:46.368Z,100.00
2022-11-13T00:39:59.385Z,100.00
2022-11-13T00:45:21.304Z,100.00
2022-11-13T00:50:42.672Z,100.00
2022-11-13T00:56:06.283Z,100.00
2022-11-13T01:01:27.259Z,100.00
2022-11-13T01:06:48.322Z,100.00
2022-11-13T01:12:10.595Z,100.00
2022-11-13T01:17:31.720Z,100.00
2022-11-13T01:22:52.959Z,100.00
2022-11-13T01:28:15.554Z,100.00
2022-11-13T01:33:37.064Z,100.00
2022-11-13T01:38:58.631Z,100.00
2022-11-13T01:44:21.608Z,100.00
2022-11-13T01:49:45.556Z,100.00
2022-11-13T01:55:12.000Z,100.00
2022-11-13T02:06:13.914Z,100.00
2022-11-13T02:11:35.149Z,100.00
2022-11-13T02:17:00.026Z,100.00
2022-11-13T02:22:32.276Z,100.00
2022-11-13T02:27:55.618Z,100.00
2022-11-13T02:33:25.704Z,100.00
2022-11-13T02:38:48.316Z,100.00
2022-11-13T02:44:11.072Z,100.00
2022-11-13T02:49:32.367Z,100.00
2022-11-13T02:54:53.760Z,100.00
2022-11-13T03:00:17.012Z,100.00
2022-11-13T03:05:38.338Z,100.00
2022-11-13T03:10:59.800Z,100.00
2022-11-13T03:16:22.387Z,100.00
2022-11-13T03:21:43.673Z,100.00
2022-11-13T03:27:05.040Z,100.00
2022-11-13T03:32:27.686Z,100.00
2022-11-13T03:37:48.975Z,100.00
2022-11-13T03:43:10.287Z,100.00
2022-11-13T03:48:32.722Z,100.00
2022-11-13T03:53:53.743Z,100.00
2022-11-13T03:59:14.979Z,100.00
2022-11-13T04:04:37.549Z,100.00
2022-11-13T04:09:58.506Z,100.00
2022-11-13T04:15:19.804Z,100.00
2022-11-13T04:20:42.560Z,100.00
2022-11-13T04:26:03.838Z,100.00
2022-11-13T04:31:24.823Z,100.00
2022-11-13T04:36:47.554Z,100.00
2022-11-13T04:42:27.415Z,100.00
2022-11-13T04:47:49.442Z,100.00
2022-11-13T04:53:11.776Z,100.00
2022-11-13T04:58:33.086Z,100.00
2022-11-13T05:03:54.418Z,100.00
2022-11-13T05:09:17.102Z,100.00
2022-11-13T05:14:39.925Z,100.00
2022-11-13T05:20:00.910Z,100.00
2022-11-13T05:25:23.723Z,100.00
2022-11-13T05:30:45.038Z,100.00
2022-11-13T05:36:08.381Z,100.00
2022-11-13T05:41:30.953Z,100.00
2022-11-13T05:46:51.987Z,100.00
2022-11-13T05:52:13.395Z,100.00
2022-11-13T05:57:36.049Z,100.00
2022-11-13T06:02:57.126Z,100.00
2022-11-13T06:08:18.822Z,100.00
2022-11-13T06:13:41.880Z,100.00
2022-11-13T06:19:04.866Z,100.00
2022-11-13T06:24:26.278Z,100.00
2022-11-13T06:29:48.512Z,100.00
2022-11-13T06:35:10.042Z,100.00
2022-11-13T06:40:31.021Z,100.00
2022-11-13T06:45:53.600Z,100.00
2022-11-13T06:51:16.898Z,100.00
2022-11-13T06:56:43.617Z,100.00
2022-11-13T07:02:06.729Z,100.00
2022-11-13T07:07:27.828Z,100.00
2022-11-13T07:12:54.817Z,100.00
2022-11-13T07:18:21.500Z,100.00
2022-11-13T07:23:44.855Z,100.00
2022-11-13T07:29:05.914Z,100.00
2022-11-13T07:34:28.685Z,100.00
2022-11-13T07:39:49.954Z,100.00
2022-11-13T07:45:11.543Z,100.00
2022-11-13T07:50:35.978Z,100.00
2022-11-13T07:55:57.506Z,100.00
2022-11-13T08:01:19.016Z,100.00
2022-11-13T08:06:41.254Z,100.00
2022-11-13T08:12:02.223Z,100.00
2022-11-13T08:17:23.518Z,100.00
2022-11-13T08:22:46.123Z,100.00
2022-11-13T08:28:12.841Z,100.00
2022-11-13T08:33:34.839Z,100.00
2022-11-13T08:38:57.472Z,100.00
2022-11-13T08:44:18.546Z,100.00
2022-11-13T08:49:39.590Z,100.00
2022-11-13T08:55:02.039Z,100.00
2022-11-13T09:00:23.187Z,100.00
2022-11-13T09:05:45.115Z,100.00
2022-11-13T09:11:07.854Z,100.00
2022-11-13T09:16:29.218Z,100.00
2022-11-13T09:21:51.813Z,100.00
2022-11-13T09:27:14.860Z,100.00
2022-11-13T09:32:36.158Z,100.00
2022-11-13T09:37:57.752Z,100.00
2022-11-13T09:43:28.814Z,100.00
2022-11-13T09:48:55.324Z,100.00
2022-11-13T09:54:17.272Z,100.00
2022-11-13T09:59:48.039Z,100.00
2022-11-13T10:05:15.879Z,100.00
2022-11-13T10:10:53.685Z,100.00
2022-11-13T10:16:30.766Z,100.00
2022-11-13T10:22:19.603Z,100.00
2022-11-13T10:27:40.466Z,100.00
2022-11-13T10:33:07.589Z,100.00
2022-11-13T10:38:35.109Z,100.00
2022-11-13T10:44:00.098Z,100.00
2022-11-13T10:49:28.786Z,100.00
2022-11-13T10:54:50.959Z,99.96
2022-11-13T11:00:24.260Z,98.05
2022-11-13T11:05:57.898Z,98.72
2022-11-13T11:11:37.786Z,98.18
2022-11-13T11:17:01.835Z,100.00
2022-11-13T11:22:29.408Z,100.00
2022-11-13T11:27:56.154Z,100.00
2022-11-13T11:33:22.561Z,100.00
2022-11-13T11:38:53.510Z,100.00
2022-11-13T11:44:21.932Z,100.00
2022-11-13T11:49:44.358Z,100.00
2022-11-13T11:55:24.622Z,98.95
2022-11-13T12:00:51.157Z,98.33
2022-11-13T12:06:20.019Z,98.00
2022-11-13T12:11:52.769Z,96.05
2022-11-13T12:17:28.728Z,96.90
2022-11-13T12:23:02.661Z,95.33
2022-11-13T12:28:38.408Z,100.00
2022-11-13T12:34:08.600Z,96.40
2022-11-13T12:39:39.825Z,92.88
2022-11-13T12:45:10.446Z,96.34
2022-11-13T12:50:33.121Z,99.58
2022-11-13T12:56:00.362Z,99.27
2022-11-13T13:01:25.547Z,99.89
2022-11-13T13:06:59.942Z,99.36
2022-11-13T13:12:32.424Z,98.96
2022-11-13T13:18:05.092Z,96.57
2022-11-13T13:23:30.329Z,98.74
2022-11-13T13:28:57.075Z,100.00
2022-11-13T13:34:34.836Z,100.00
2022-11-13T13:40:10.065Z,100.00
2022-11-13T13:45:41.723Z,100.00
2022-11-13T13:51:10.931Z,100.00
2022-11-13T13:56:32.857Z,100.00
2022-11-13T14:01:58.098Z,100.00
2022-11-13T14:07:26.483Z,100.00
2022-11-13T14:12:48.585Z,100.00
2022-11-13T14:23:45.920Z,100.00
2022-11-13T14:29:32.904Z,100.00
2022-11-13T14:34:56.259Z,100.00
2022-11-13T14:40:23.412Z,100.00
2022-11-13T14:45:54.454Z,100.00
2022-11-13T14:51:25.514Z,100.00
2022-11-13T14:56:51.593Z,100.00
2022-11-13T15:02:14.441Z,100.00
2022-11-13T15:07:47.859Z,100.00
2022-11-13T15:13:13.206Z,100.00
2022-11-13T15:18:35.339Z,100.00
2022-11-13T15:23:56.481Z,100.00
2022-11-13T15:29:19.187Z,100.00
2022-11-13T15:34:40.824Z,100.00
2022-11-13T15:40:02.674Z,100.00
2022-11-13T15:45:26.163Z,100.00
2022-11-13T15:50:47.619Z,100.00
2022-11-13T15:56:09.011Z,100.00
2022-11-13T16:01:31.903Z,100.00
2022-11-13T16:06:53.052Z,100.00
2022-11-13T16:12:15.031Z,100.00
2022-11-13T16:17:41.451Z,100.00
2022-11-13T16:23:02.451Z,100.00
2022-11-13T16:28:23.616Z,100.00
2022-11-13T16:33:46.439Z,100.00
2022-11-13T16:39:10.531Z,100.00
2022-11-13T16:44:31.774Z,100.00
2022-11-13T16:49:54.706Z,100.00
2022-11-13T16:55:15.901Z,100.00
2022-11-13T17:00:37.104Z,100.00
2022-11-13T17:05:59.696Z,100.00
2022-11-13T17:11:26.456Z,100.00
2022-11-13T17:16:47.592Z,100.00
2022-11-13T17:22:10.156Z,100.00
2022-11-13T17:27:31.399Z,100.00
2022-11-13T17:32:52.872Z,100.00
2022-11-13T17:38:15.345Z,100.00
2022-11-13T17:43:37.462Z,100.00
2022-11-13T17:48:58.364Z,100.00
2022-11-13T17:54:20.986Z,100.00
2022-11-13T17:59:42.452Z,100.00
2022-11-13T18:05:04.600Z,100.00
2022-11-13T18:10:27.110Z,100.00
2022-11-13T18:15:48.436Z,100.00
2022-11-13T18:21:22.411Z,100.00
2022-11-13T18:26:46.676Z,100.00
2022-11-13T18:32:08.070Z,100.00
2022-11-13T18:37:30.195Z,100.00
2022-11-13T18:42:52.555Z,100.00
2022-11-13T18:48:14.216Z,100.00
2022-11-13T18:53:36.926Z,100.00
2022-11-13T18:59:00.338Z,100.00
2022-11-13T19:04:23.697Z,100.00
2022-11-13T19:09:49.842Z,100.00
2022-11-13T19:15:12.677Z,100.00
2022-11-13T19:20:34.336Z,100.00
2022-11-13T19:25:55.861Z,100.00
2022-11-13T19:31:20.201Z,100.00
2022-11-13T19:36:44.871Z,100.00
2022-11-13T19:42:06.550Z,100.00
2022-11-13T19:47:29.401Z,100.00
2022-11-13T19:52:50.903Z,100.00
2022-11-13T19:58:12.287Z,100.00
2022-11-13T20:03:35.538Z,100.00
2022-11-13T20:08:58.584Z,100.00
2022-11-13T20:14:19.863Z,100.00
2022-11-13T20:19:42.161Z,100.00
2022-11-13T20:25:03.599Z,100.00
2022-11-13T20:30:25.188Z,100.00
2022-11-13T20:35:55.453Z,100.00
2022-11-13T20:41:16.833Z,100.00
2022-11-13T20:46:38.461Z,100.00
2022-11-13T20:52:01.664Z,100.00
2022-11-13T20:57:23.347Z,100.00
2022-11-13T21:02:44.877Z,100.00
2022-11-13T21:08:11.154Z,100.00
2022-11-13T21:13:33.445Z,100.00
2022-11-13T21:18:56.461Z,100.00
2022-11-13T21:24:19.128Z,100.00
2022-11-13T21:29:40.517Z,100.00
2022-11-13T21:35:01.954Z,100.00
2022-11-13T21:40:24.592Z,100.00
2022-11-13T21:45:46.096Z,100.00
2022-11-13T21:51:07.301Z,100.00
2022-11-13T21:56:31.047Z,100.00
2022-11-13T22:01:52.723Z,100.00
2022-11-13T22:07:14.029Z,100.00
2022-11-13T22:12:37.163Z,100.00
2022-11-13T22:17:58.367Z,100.00
2022-11-13T22:23:19.403Z,100.00
2022-11-13T22:28:43.607Z,100.00
2022-11-13T22:34:05.523Z,100.00
2022-11-13T22:39:26.785Z,100.00
2022-11-13T22:44:56.276Z,100.00
2022-11-13T22:50:17.787Z,100.00
2022-11-13T22:55:39.158Z,100.00
2022-11-13T23:01:09.341Z,100.00
2022-11-13T23:06:32.994Z,100.00
2022-11-13T23:11:54.186Z,100.00
2022-11-13T23:17:16.900Z,100.00
2022-11-13T23:22:38.239Z,100.00
2022-11-13T23:27:59.419Z,100.00
2022-11-13T23:33:22.333Z,100.00
2022-11-13T23:38:43.687Z,100.00
2022-11-13T23:44:09.718Z,100.00
2022-11-13T23:49:32.325Z,100.00
2022-11-13T23:54:53.629Z,100.00
